createdAt,value
2022-12-03T11:13:50.581Z,20.90
2022-12-03T11:17:04.833Z,20.27
2022-12-03T11:19:45.678Z,19.90
2022-12-03T11:22:26.291Z,18.50
2022-12-03T11:28:33.496Z,18.38
2022-12-03T11:31:28.941Z,18.83
2022-12-03T11:34:48.670Z,18.77
2022-12-03T14:39:53.344Z,13.45
2022-12-03T14:42:26.720Z,13.60
2022-12-03T14:44:58.529Z,13.27
2022-12-03T14:47:30.284Z,13.75
2022-12-03T14:50:02.346Z,14.88
2022-12-03T14:52:34.147Z,14.00
2022-12-03T14:55:06.412Z,15.05
2022-12-03T14:57:39.544Z,14.82
2022-12-03T15:00:12.676Z,15.05
2022-12-03T15:02:44.571Z,14.55
2022-12-03T15:05:16.475Z,15.32
2022-12-03T15:07:48.348Z,15.43
2022-12-03T15:10:20.203Z,15.55
2022-12-03T15:12:53.296Z,14.45
2022-12-03T15:15:25.100Z,15.18
2022-12-03T15:17:56.860Z,14.95
2022-12-03T15:20:28.673Z,14.75
2022-12-03T15:23:00.459Z,13.95
2022-12-03T15:25:34.123Z,15.23
2022-12-03T15:28:07.243Z,14.65
2022-12-03T15:30:38.984Z,15.65
2022-12-03T15:33:11.180Z,13.88
2022-12-03T15:35:44.171Z,14.40
2022-12-03T15:38:15.932Z,15.90
2022-12-03T15:40:47.740Z,14.93
2022-12-03T15:43:20.812Z,15.00
2022-12-03T15:45:52.664Z,15.18
2022-12-03T15:48:24.555Z,15.15
2022-12-03T15:50:56.306Z,14.43
2022-12-03T15:53:28.067Z,14.32
2022-12-03T15:55:59.923Z,15.30
2022-12-03T15:58:33.121Z,15.63
2022-12-03T16:16:16.512Z,14.85
2022-12-03T16:18:48.543Z,15.13
2022-12-03T16:21:26.260Z,14.70
2022-12-03T16:23:59.193Z,14.60
2022-12-03T19:09:43.702Z,14.07
2022-12-03T19:12:16.683Z,14.10
2022-12-03T19:14:48.581Z,15.10
2022-12-03T19:17:21.877Z,14.88
2022-12-03T19:24:57.733Z,15.35
2022-12-03T19:30:01.516Z,15.38
2022-12-03T19:35:11.276Z,15.55
2022-12-03T20:02:04.799Z,15.10
2022-12-03T21:03:16.384Z,14.75
2022-12-03T21:05:48.199Z,15.40
2022-12-03T21:13:46.975Z,18.55
2022-12-03T21:16:34.498Z,17.17
2022-12-03T21:19:13.422Z,15.82
2022-12-03T21:21:45.258Z,15.02
2022-12-03T21:24:17.228Z,15.13
2022-12-03T21:26:50.148Z,14.90
2022-12-03T21:37:07.548Z,14.85
2022-12-03T21:39:39.309Z,13.55
2022-12-03T21:42:18.863Z,16.35
2022-12-03T21:55:14.495Z,13.77
2022-12-03T21:57:46.300Z,14.07
2022-12-03T22:00:20.325Z,13.50
2022-12-03T22:02:52.316Z,13.88
2022-12-03T22:05:24.332Z,13.68
2022-12-03T22:07:56.216Z,14.30
2022-12-03T22:10:28.084Z,13.05
2022-12-03T22:12:59.881Z,14.27
2022-12-03T22:15:33.170Z,13.63
2022-12-03T22:20:36.715Z,13.93
2022-12-03T22:23:08.510Z,13.23
2022-12-03T22:25:40.290Z,13.90
2022-12-03T22:28:12.097Z,13.93
2022-12-03T22:30:45.284Z,13.52
2022-12-03T22:33:17.065Z,13.35
2022-12-03T22:35:57.048Z,13.75
2022-12-03T22:38:29.983Z,13.30
2022-12-03T22:41:05.127Z,13.27
2022-12-03T22:43:37.347Z,14.18
2022-12-03T22:46:12.527Z,12.82
2022-12-03T22:48:46.122Z,13.20
2022-12-03T22:51:20.921Z,12.70
2022-12-03T22:53:54.502Z,12.70
2022-12-03T22:56:27.817Z,13.13
2022-12-03T23:01:34.948Z,11.93
2022-12-03T23:04:07.998Z,12.43
2022-12-03T23:06:40.173Z,12.50
2022-12-03T23:09:11.983Z,13.50
2022-12-03T23:11:45.325Z,13.50
2022-12-03T23:16:50.047Z,12.23
2022-12-03T23:19:22.558Z,12.30
2022-12-03T23:21:54.353Z,12.60
2022-12-03T23:24:26.231Z,12.50
2022-12-03T23:26:58.081Z,12.45
2022-12-03T23:29:29.902Z,13.75
2022-12-03T23:32:03.156Z,12.50
2022-12-03T23:34:34.997Z,12.38
2022-12-03T23:37:06.832Z,13.27
2022-12-03T23:39:38.728Z,12.68
2022-12-03T23:42:10.539Z,14.40
2022-12-03T23:44:42.306Z,15.00
2022-12-03T23:47:15.738Z,14.90
2022-12-03T23:49:47.617Z,14.27
2022-12-03T23:52:19.371Z,13.43
2022-12-03T23:54:51.160Z,14.20
2022-12-03T23:57:22.971Z,14.63
2022-12-03T23:59:54.999Z,13.80
